sensor_id;sensor_type;location;lat;lon;timestamp;P1;durP1;ratioP1;P2;durP2;ratioP2
75209;SDS011;63796;53.136;14.882;2023-02-28T00:01:28;45.50;;;13.80;;
75209;SDS011;63796;53.136;14.882;2023-02-28T00:03:57;45.90;;;13.80;;
75209;SDS011;63796;53.136;14.882;2023-02-28T00:06:25;42.80;;;12.20;;
75209;SDS011;63796;53.136;14.882;2023-02-28T00:08:53;23.60;;;8.00;;
75209;SDS011;63796;53.136;14.882;2023-02-28T00:11:20;16.10;;;6.70;;
75209;SDS011;63796;53.136;14.882;2023-02-28T00:13:48;15.80;;;5.90;;
75209;SDS011;63796;53.136;14.882;2023-02-28T00:16:18;14.00;;;6.60;;
75209;SDS011;63796;53.136;14.882;2023-02-28T00:18:46;17.70;;;6.70;;
75209;SDS011;63796;53.136;14.882;2023-02-28T00:21:19;17.10;;;6.70;;
75209;SDS011;63796;53.136;14.882;2023-02-28T00:23:47;17.50;;;6.40;;
75209;SDS011;63796;53.136;14.882;2023-02-28T00:26:15;23.90;;;7.00;;
75209;SDS011;63796;53.136;14.882;2023-02-28T00:28:47;18.90;;;6.50;;
75209;SDS011;63796;53.136;14.882;2023-02-28T00:31:15;22.40;;;7.90;;
75209;SDS011;63796;53.136;14.882;2023-02-28T00:33:43;21.30;;;7.60;;
75209;SDS011;63796;53.136;14.882;2023-02-28T00:36:13;21.40;;;7.20;;
75209;SDS011;63796;53.136;14.882;2023-02-28T00:38:44;21.30;;;7.70;;
75209;SDS011;63796;53.136;14.882;2023-02-28T00:41:14;20.90;;;7.90;;
75209;SDS011;63796;53.136;14.882;2023-02-28T00:43:42;22.00;;;7.30;;
75209;SDS011;63796;53.136;14.882;2023-02-28T00:46:09;17.20;;;6.20;;
75209;SDS011;63796;53.136;14.882;2023-02-28T00:48:37;17.30;;;6.60;;
75209;SDS011;63796;53.136;14.882;2023-02-28T00:51:05;14.10;;;6.10;;
75209;SDS011;63796;53.136;14.882;2023-02-28T00:53:32;15.40;;;5.40;;
75209;SDS011;63796;53.136;14.882;2023-02-28T00:56:00;19.70;;;7.10;;
75209;SDS011;63796;53.136;14.882;2023-02-28T00:58:28;18.60;;;7.10;;
75209;SDS011;63796;53.136;14.882;2023-02-28T01:00:55;22.50;;;7.50;;
75209;SDS011;63796;53.136;14.882;2023-02-28T01:03:23;24.90;;;8.90;;
75209;SDS011;63796;53.136;14.882;2023-02-28T01:05:51;21.70;;;8.50;;
75209;SDS011;63796;53.136;14.882;2023-02-28T01:08:20;23.80;;;8.10;;
75209;SDS011;63796;53.136;14.882;2023-02-28T01:10:48;24.90;;;7.70;;
75209;SDS011;63796;53.136;14.882;2023-02-28T01:13:15;23.50;;;8.20;;
75209;SDS011;63796;53.136;14.882;2023-02-28T01:15:50;16.50;;;6.20;;
75209;SDS011;63796;53.136;14.882;2023-02-28T01:18:18;21.20;;;7.30;;
75209;SDS011;63796;53.136;14.882;2023-02-28T01:20:47;20.20;;;7.20;;
75209;SDS011;63796;53.136;14.882;2023-02-28T01:23:14;18.50;;;7.40;;
75209;SDS011;63796;53.136;14.882;2023-02-28T01:25:41;19.70;;;7.20;;
75209;SDS011;63796;53.136;14.882;2023-02-28T01:28:08;18.60;;;6.60;;
75209;SDS011;63796;53.136;14.882;2023-02-28T01:30:36;17.10;;;7.10;;
75209;SDS011;63796;53.136;14.882;2023-02-28T01:33:03;23.80;;;9.20;;
75209;SDS011;63796;53.136;14.882;2023-02-28T01:35:35;26.70;;;8.70;;
75209;SDS011;63796;53.136;14.882;2023-02-28T01:38:03;24.30;;;8.60;;
75209;SDS011;63796;53.136;14.882;2023-02-28T01:40:47;19.30;;;7.70;;
75209;SDS011;63796;53.136;14.882;2023-02-28T01:43:32;16.90;;;6.60;;
75209;SDS011;63796;53.136;14.882;2023-02-28T01:46:18;15.50;;;6.10;;
75209;SDS011;63796;53.136;14.882;2023-02-28T01:48:56;16.40;;;5.80;;
75209;SDS011;63796;53.136;14.882;2023-02-28T01:51:41;19.30;;;6.10;;
75209;SDS011;63796;53.136;14.882;2023-02-28T01:54:16;15.20;;;5.30;;
75209;SDS011;63796;53.136;14.882;2023-02-28T01:56:47;16.50;;;5.60;;
75209;SDS011;63796;53.136;14.882;2023-02-28T01:59:26;14.40;;;6.20;;
75209;SDS011;63796;53.136;14.882;2023-02-28T02:01:56;15.20;;;5.70;;
75209;SDS011;63796;53.136;14.882;2023-02-28T02:04:26;12.10;;;4.40;;
75209;SDS011;63796;53.136;14.882;2023-02-28T02:06:58;12.20;;;5.00;;
75209;SDS011;63796;53.136;14.882;2023-02-28T02:09:25;12.30;;;4.70;;
75209;SDS011;63796;53.136;14.882;2023-02-28T02:12:07;12.30;;;4.70;;
75209;SDS011;63796;53.136;14.882;2023-02-28T02:17:52;9.70;;;4.40;;
75209;SDS011;63796;53.136;14.882;2023-02-28T02:32:43;15.90;;;5.10;;
75209;SDS011;63796;53.136;14.882;2023-02-28T02:37:51;13.00;;;5.00;;
75209;SDS011;63796;53.136;14.882;2023-02-28T02:40:22;15.10;;;5.00;;
75209;SDS011;63796;53.136;14.882;2023-02-28T02:42:55;14.20;;;5.50;;
75209;SDS011;63796;53.136;14.882;2023-02-28T02:48:06;20.10;;;6.30;;
75209;SDS011;63796;53.136;14.882;2023-02-28T02:50:49;15.70;;;6.10;;
75209;SDS011;63796;53.136;14.882;2023-02-28T02:53:19;20.20;;;6.60;;
75209;SDS011;63796;53.136;14.882;2023-02-28T02:55:51;16.30;;;6.80;;
75209;SDS011;63796;53.136;14.882;2023-02-28T02:58:25;37.00;;;11.20;;
75209;SDS011;63796;53.136;14.882;2023-02-28T03:00:57;82.20;;;23.70;;
75209;SDS011;63796;53.136;14.882;2023-02-28T03:03:26;57.10;;;17.90;;
75209;SDS011;63796;53.136;14.882;2023-02-28T03:05:59;53.20;;;17.80;;
75209;SDS011;63796;53.136;14.882;2023-02-28T03:08:31;58.20;;;17.10;;
75209;SDS011;63796;53.136;14.882;2023-02-28T03:11:05;86.70;;;26.00;;
75209;SDS011;63796;53.136;14.882;2023-02-28T03:16:34;64.90;;;19.90;;
75209;SDS011;63796;53.136;14.882;2023-02-28T03:26:52;33.40;;;10.20;;
75209;SDS011;63796;53.136;14.882;2023-02-28T03:29:39;37.80;;;11.50;;
75209;SDS011;63796;53.136;14.882;2023-02-28T03:35:03;35.30;;;11.40;;
75209;SDS011;63796;53.136;14.882;2023-02-28T03:37:35;31.40;;;10.90;;
75209;SDS011;63796;53.136;14.882;2023-02-28T03:40:07;27.60;;;8.90;;
75209;SDS011;63796;53.136;14.882;2023-02-28T03:42:38;32.70;;;9.70;;
75209;SDS011;63796;53.136;14.882;2023-02-28T03:45:18;32.60;;;10.10;;
75209;SDS011;63796;53.136;14.882;2023-02-28T03:47:52;25.60;;;8.40;;
75209;SDS011;63796;53.136;14.882;2023-02-28T03:50:34;25.90;;;9.00;;
75209;SDS011;63796;53.136;14.882;2023-02-28T03:55:43;27.40;;;10.70;;
75209;SDS011;63796;53.136;14.882;2023-02-28T04:00:48;45.40;;;14.30;;
75209;SDS011;63796;53.136;14.882;2023-02-28T04:03:18;43.60;;;14.00;;
75209;SDS011;63796;53.136;14.882;2023-02-28T04:05:55;35.50;;;13.00;;
75209;SDS011;63796;53.136;14.882;2023-02-28T04:08:24;43.10;;;13.60;;
75209;SDS011;63796;53.136;14.882;2023-02-28T04:10:57;37.00;;;13.10;;
75209;SDS011;63796;53.136;14.882;2023-02-28T04:13:27;34.40;;;11.50;;
75209;SDS011;63796;53.136;14.882;2023-02-28T04:15:54;33.20;;;11.60;;
75209;SDS011;63796;53.136;14.882;2023-02-28T04:18:21;38.40;;;12.20;;
75209;SDS011;63796;53.136;14.882;2023-02-28T04:20:49;30.90;;;11.80;;
75209;SDS011;63796;53.136;14.882;2023-02-28T04:23:16;36.10;;;12.30;;
75209;SDS011;63796;53.136;14.882;2023-02-28T04:25:43;39.90;;;12.90;;
75209;SDS011;63796;53.136;14.882;2023-02-28T04:28:10;47.40;;;14.70;;
75209;SDS011;63796;53.136;14.882;2023-02-28T04:30:37;52.40;;;16.10;;
75209;SDS011;63796;53.136;14.882;2023-02-28T04:33:06;51.80;;;15.80;;
75209;SDS011;63796;53.136;14.882;2023-02-28T04:35:33;44.50;;;14.80;;
75209;SDS011;63796;53.136;14.882;2023-02-28T04:38:00;48.20;;;14.30;;
75209;SDS011;63796;53.136;14.882;2023-02-28T04:40:28;41.10;;;14.20;;
75209;SDS011;63796;53.136;14.882;2023-02-28T04:42:55;40.60;;;13.50;;
75209;SDS011;63796;53.136;14.882;2023-02-28T04:45:23;38.40;;;13.80;;
75209;SDS011;63796;53.136;14.882;2023-02-28T04:47:50;45.80;;;16.30;;
75209;SDS011;63796;53.136;14.882;2023-02-28T04:50:17;46.80;;;15.80;;
75209;SDS011;63796;53.136;14.882;2023-02-28T04:52:45;33.20;;;13.10;;
75209;SDS011;63796;53.136;14.882;2023-02-28T04:55:12;37.60;;;13.50;;
75209;SDS011;63796;53.136;14.882;2023-02-28T04:57:39;43.70;;;14.50;;
75209;SDS011;63796;53.136;14.882;2023-02-28T05:00:10;46.50;;;14.60;;
75209;SDS011;63796;53.136;14.882;2023-02-28T05:02:38;34.50;;;12.20;;
75209;SDS011;63796;53.136;14.882;2023-02-28T05:05:06;28.50;;;10.70;;
75209;SDS011;63796;53.136;14.882;2023-02-28T05:07:33;31.50;;;10.20;;
75209;SDS011;63796;53.136;14.882;2023-02-28T05:10:01;30.50;;;10.70;;
75209;SDS011;63796;53.136;14.882;2023-02-28T05:12:28;24.20;;;9.20;;
75209;SDS011;63796;53.136;14.882;2023-02-28T05:14:56;29.30;;;11.50;;
75209;SDS011;63796;53.136;14.882;2023-02-28T05:17:23;29.60;;;11.30;;
75209;SDS011;63796;53.136;14.882;2023-02-28T05:19:51;39.00;;;13.20;;
75209;SDS011;63796;53.136;14.882;2023-02-28T05:22:18;36.80;;;12.60;;
75209;SDS011;63796;53.136;14.882;2023-02-28T05:24:46;38.50;;;13.70;;
75209;SDS011;63796;53.136;14.882;2023-02-28T05:27:13;40.20;;;14.30;;
75209;SDS011;63796;53.136;14.882;2023-02-28T05:29:40;43.50;;;14.80;;
75209;SDS011;63796;53.136;14.882;2023-02-28T05:32:12;35.70;;;12.30;;
75209;SDS011;63796;53.136;14.882;2023-02-28T05:34:40;35.20;;;13.90;;
75209;SDS011;63796;53.136;14.882;2023-02-28T05:37:12;36.60;;;12.40;;
75209;SDS011;63796;53.136;14.882;2023-02-28T05:39:40;39.50;;;14.40;;
75209;SDS011;63796;53.136;14.882;2023-02-28T05:42:07;35.10;;;13.20;;
75209;SDS011;63796;53.136;14.882;2023-02-28T05:44:36;32.00;;;11.60;;
75209;SDS011;63796;53.136;14.882;2023-02-28T05:47:03;30.40;;;11.00;;
75209;SDS011;63796;53.136;14.882;2023-02-28T05:49:31;28.80;;;12.00;;
75209;SDS011;63796;53.136;14.882;2023-02-28T05:51:58;29.90;;;10.90;;
75209;SDS011;63796;53.136;14.882;2023-02-28T05:54:26;30.80;;;11.40;;
75209;SDS011;63796;53.136;14.882;2023-02-28T05:56:53;29.40;;;11.20;;
75209;SDS011;63796;53.136;14.882;2023-02-28T05:59:21;25.10;;;9.70;;
75209;SDS011;63796;53.136;14.882;2023-02-28T06:01:48;20.40;;;9.10;;
75209;SDS011;63796;53.136;14.882;2023-02-28T06:04:17;20.80;;;8.60;;
75209;SDS011;63796;53.136;14.882;2023-02-28T06:06:58;20.80;;;8.10;;
75209;SDS011;63796;53.136;14.882;2023-02-28T06:09:25;23.80;;;8.80;;
75209;SDS011;63796;53.136;14.882;2023-02-28T06:11:52;22.60;;;8.30;;
75209;SDS011;63796;53.136;14.882;2023-02-28T06:14:23;20.10;;;8.60;;
75209;SDS011;63796;53.136;14.882;2023-02-28T06:16:50;24.60;;;9.90;;
75209;SDS011;63796;53.136;14.882;2023-02-28T06:19:18;24.60;;;9.50;;
75209;SDS011;63796;53.136;14.882;2023-02-28T06:21:50;24.40;;;9.30;;
75209;SDS011;63796;53.136;14.882;2023-02-28T06:24:23;24.40;;;9.60;;
75209;SDS011;63796;53.136;14.882;2023-02-28T06:26:50;28.80;;;9.60;;
75209;SDS011;63796;53.136;14.882;2023-02-28T06:29:18;34.30;;;11.40;;
75209;SDS011;63796;53.136;14.882;2023-02-28T06:31:48;24.60;;;9.10;;
75209;SDS011;63796;53.136;14.882;2023-02-28T06:34:16;26.80;;;10.10;;
75209;SDS011;63796;53.136;14.882;2023-02-28T06:36:43;30.80;;;10.40;;
75209;SDS011;63796;53.136;14.882;2023-02-28T06:39:11;27.00;;;9.50;;
75209;SDS011;63796;53.136;14.882;2023-02-28T06:41:38;23.30;;;8.10;;
75209;SDS011;63796;53.136;14.882;2023-02-28T06:44:21;33.50;;;11.30;;
75209;SDS011;63796;53.136;14.882;2023-02-28T06:46:49;54.40;;;14.80;;
75209;SDS011;63796;53.136;14.882;2023-02-28T06:49:17;38.30;;;11.10;;
75209;SDS011;63796;53.136;14.882;2023-02-28T06:51:45;31.80;;;11.40;;
75209;SDS011;63796;53.136;14.882;2023-02-28T06:54:13;26.80;;;11.00;;
75209;SDS011;63796;53.136;14.882;2023-02-28T06:56:40;23.80;;;10.00;;
75209;SDS011;63796;53.136;14.882;2023-02-28T06:59:07;26.60;;;10.80;;
75209;SDS011;63796;53.136;14.882;2023-02-28T07:01:35;22.20;;;10.20;;
75209;SDS011;63796;53.136;14.882;2023-02-28T07:04:05;22.20;;;8.70;;
75209;SDS011;63796;53.136;14.882;2023-02-28T07:06:32;22.10;;;8.60;;
75209;SDS011;63796;53.136;14.882;2023-02-28T07:09:00;26.90;;;10.30;;
75209;SDS011;63796;53.136;14.882;2023-02-28T07:11:27;26.90;;;10.40;;
75209;SDS011;63796;53.136;14.882;2023-02-28T07:13:56;30.00;;;11.20;;
75209;SDS011;63796;53.136;14.882;2023-02-28T07:16:24;24.90;;;10.80;;
75209;SDS011;63796;53.136;14.882;2023-02-28T07:18:53;31.00;;;12.60;;
75209;SDS011;63796;53.136;14.882;2023-02-28T07:21:21;29.30;;;12.10;;
75209;SDS011;63796;53.136;14.882;2023-02-28T07:23:49;33.60;;;11.90;;
75209;SDS011;63796;53.136;14.882;2023-02-28T07:26:17;33.20;;;13.10;;
75209;SDS011;63796;53.136;14.882;2023-02-28T07:28:46;35.20;;;12.90;;
75209;SDS011;63796;53.136;14.882;2023-02-28T07:31:15;41.60;;;14.80;;
75209;SDS011;63796;53.136;14.882;2023-02-28T07:33:44;40.40;;;14.60;;
75209;SDS011;63796;53.136;14.882;2023-02-28T07:36:15;36.60;;;13.80;;
75209;SDS011;63796;53.136;14.882;2023-02-28T07:38:46;37.80;;;13.00;;
75209;SDS011;63796;53.136;14.882;2023-02-28T07:41:21;41.20;;;14.90;;
75209;SDS011;63796;53.136;14.882;2023-02-28T07:43:49;38.50;;;12.80;;
75209;SDS011;63796;53.136;14.882;2023-02-28T07:46:17;33.80;;;10.70;;
75209;SDS011;63796;53.136;14.882;2023-02-28T07:48:44;36.30;;;11.80;;
75209;SDS011;63796;53.136;14.882;2023-02-28T07:51:12;30.20;;;11.20;;
75209;SDS011;63796;53.136;14.882;2023-02-28T07:53:39;28.60;;;11.00;;
75209;SDS011;63796;53.136;14.882;2023-02-28T07:56:09;26.50;;;10.80;;
75209;SDS011;63796;53.136;14.882;2023-02-28T07:58:37;25.80;;;10.20;;
75209;SDS011;63796;53.136;14.882;2023-02-28T08:01:10;24.70;;;10.80;;
75209;SDS011;63796;53.136;14.882;2023-02-28T08:03:38;23.30;;;10.10;;
75209;SDS011;63796;53.136;14.882;2023-02-28T08:06:11;22.40;;;9.40;;
75209;SDS011;63796;53.136;14.882;2023-02-28T08:08:41;18.80;;;9.50;;
75209;SDS011;63796;53.136;14.882;2023-02-28T08:11:09;18.60;;;9.30;;
75209;SDS011;63796;53.136;14.882;2023-02-28T08:13:36;20.20;;;7.90;;
75209;SDS011;63796;53.136;14.882;2023-02-28T08:16:03;13.90;;;6.90;;
75209;SDS011;63796;53.136;14.882;2023-02-28T08:18:32;15.50;;;6.80;;
75209;SDS011;63796;53.136;14.882;2023-02-28T08:20:59;16.50;;;7.40;;
75209;SDS011;63796;53.136;14.882;2023-02-28T08:23:27;39.90;;;15.30;;
75209;SDS011;63796;53.136;14.882;2023-02-28T08:25:55;31.30;;;12.00;;
75209;SDS011;63796;53.136;14.882;2023-02-28T08:28:25;33.10;;;12.70;;
75209;SDS011;63796;53.136;14.882;2023-02-28T08:30:53;41.60;;;15.00;;
75209;SDS011;63796;53.136;14.882;2023-02-28T08:33:22;30.90;;;12.90;;
75209;SDS011;63796;53.136;14.882;2023-02-28T08:35:53;28.50;;;11.60;;
75209;SDS011;63796;53.136;14.882;2023-02-28T08:38:21;27.80;;;12.60;;
75209;SDS011;63796;53.136;14.882;2023-02-28T08:40:48;30.40;;;12.00;;
75209;SDS011;63796;53.136;14.882;2023-02-28T08:43:16;34.40;;;13.40;;
75209;SDS011;63796;53.136;14.882;2023-02-28T08:45:43;27.40;;;10.70;;
75209;SDS011;63796;53.136;14.882;2023-02-28T08:48:11;20.90;;;9.80;;
75209;SDS011;63796;53.136;14.882;2023-02-28T08:50:38;25.20;;;10.20;;
75209;SDS011;63796;53.136;14.882;2023-02-28T08:53:06;23.80;;;9.80;;
75209;SDS011;63796;53.136;14.882;2023-02-28T08:55:33;27.00;;;10.30;;
75209;SDS011;63796;53.136;14.882;2023-02-28T08:58:00;27.50;;;10.10;;
75209;SDS011;63796;53.136;14.882;2023-02-28T09:00:28;30.40;;;11.30;;
75209;SDS011;63796;53.136;14.882;2023-02-28T09:02:55;59.20;;;23.30;;
75209;SDS011;63796;53.136;14.882;2023-02-28T09:05:23;47.10;;;18.50;;
75209;SDS011;63796;53.136;14.882;2023-02-28T09:07:50;32.20;;;12.70;;
75209;SDS011;63796;53.136;14.882;2023-02-28T09:10:17;27.70;;;12.60;;
75209;SDS011;63796;53.136;14.882;2023-02-28T09:12:45;33.40;;;13.20;;
75209;SDS011;63796;53.136;14.882;2023-02-28T09:15:13;33.40;;;14.60;;
75209;SDS011;63796;53.136;14.882;2023-02-28T09:17:41;35.00;;;14.00;;
75209;SDS011;63796;53.136;14.882;2023-02-28T09:20:11;30.90;;;13.20;;
75209;SDS011;63796;53.136;14.882;2023-02-28T09:22:39;24.30;;;10.60;;
75209;SDS011;63796;53.136;14.882;2023-02-28T09:25:06;18.70;;;9.60;;
75209;SDS011;63796;53.136;14.882;2023-02-28T09:27:34;19.60;;;9.40;;
75209;SDS011;63796;53.136;14.882;2023-02-28T09:30:01;20.60;;;8.80;;
75209;SDS011;63796;53.136;14.882;2023-02-28T09:32:28;26.10;;;10.00;;
75209;SDS011;63796;53.136;14.882;2023-02-28T09:34:55;23.00;;;11.10;;
75209;SDS011;63796;53.136;14.882;2023-02-28T09:37:23;25.20;;;8.90;;
75209;SDS011;63796;53.136;14.882;2023-02-28T09:39:50;14.20;;;6.60;;
75209;SDS011;63796;53.136;14.882;2023-02-28T09:42:30;15.40;;;6.40;;
75209;SDS011;63796;53.136;14.882;2023-02-28T09:45:00;13.80;;;6.40;;
75209;SDS011;63796;53.136;14.882;2023-02-28T09:47:39;6.50;;;3.00;;
75209;SDS011;63796;53.136;14.882;2023-02-28T09:50:29;13.00;;;5.10;;
75209;SDS011;63796;53.136;14.882;2023-02-28T09:53:04;5.70;;;2.50;;
75209;SDS011;63796;53.136;14.882;2023-02-28T09:55:45;8.90;;;3.10;;
75209;SDS011;63796;53.136;14.882;2023-02-28T09:58:47;4.50;;;1.80;;
75209;SDS011;63796;53.136;14.882;2023-02-28T10:01:40;5.50;;;2.10;;
75209;SDS011;63796;53.136;14.882;2023-02-28T10:04:35;7.10;;;3.00;;
75209;SDS011;63796;53.136;14.882;2023-02-28T10:07:17;2.50;;;1.10;;
75209;SDS011;63796;53.136;14.882;2023-02-28T10:09:52;4.00;;;1.80;;
75209;SDS011;63796;53.136;14.882;2023-02-28T10:12:20;4.90;;;2.20;;
75209;SDS011;63796;53.136;14.882;2023-02-28T10:14:51;4.60;;;2.20;;
75209;SDS011;63796;53.136;14.882;2023-02-28T10:17:23;8.00;;;2.20;;
75209;SDS011;63796;53.136;14.882;2023-02-28T10:20:00;3.60;;;1.90;;
75209;SDS011;63796;53.136;14.882;2023-02-28T10:22:34;4.30;;;1.80;;
75209;SDS011;63796;53.136;14.882;2023-02-28T10:25:21;4.60;;;1.50;;
75209;SDS011;63796;53.136;14.882;2023-02-28T10:27:50;3.70;;;1.50;;
75209;SDS011;63796;53.136;14.882;2023-02-28T10:30:20;2.40;;;1.20;;
75209;SDS011;63796;53.136;14.882;2023-02-28T10:32:51;3.50;;;1.50;;
75209;SDS011;63796;53.136;14.882;2023-02-28T10:35:25;7.60;;;1.80;;
75209;SDS011;63796;53.136;14.882;2023-02-28T10:37:55;6.20;;;2.20;;
75209;SDS011;63796;53.136;14.882;2023-02-28T10:43:02;3.10;;;1.90;;
75209;SDS011;63796;53.136;14.882;2023-02-28T10:45:32;2.80;;;1.90;;
75209;SDS011;63796;53.136;14.882;2023-02-28T10:48:22;5.40;;;2.80;;
75209;SDS011;63796;53.136;14.882;2023-02-28T10:50:54;3.90;;;3.30;;
75209;SDS011;63796;53.136;14.882;2023-02-28T10:53:39;2.90;;;2.70;;
75209;SDS011;63796;53.136;14.882;2023-02-28T10:56:26;3.70;;;2.80;;
75209;SDS011;63796;53.136;14.882;2023-02-28T11:03:58;4.10;;;3.70;;
75209;SDS011;63796;53.136;14.882;2023-02-28T11:06:31;5.60;;;3.90;;
75209;SDS011;63796;53.136;14.882;2023-02-28T11:09:02;3.40;;;3.00;;
75209;SDS011;63796;53.136;14.882;2023-02-28T11:11:30;5.20;;;4.00;;
75209;SDS011;63796;53.136;14.882;2023-02-28T11:14:27;5.40;;;3.50;;
75209;SDS011;63796;53.136;14.882;2023-02-28T11:16:58;3.50;;;3.20;;
75209;SDS011;63796;53.136;14.882;2023-02-28T11:19:33;9.40;;;4.10;;
75209;SDS011;63796;53.136;14.882;2023-02-28T11:22:03;3.80;;;3.50;;
75209;SDS011;63796;53.136;14.882;2023-02-28T11:24:35;3.80;;;3.40;;
75209;SDS011;63796;53.136;14.882;2023-02-28T11:27:04;4.80;;;3.30;;
75209;SDS011;63796;53.136;14.882;2023-02-28T11:29:33;5.60;;;3.60;;
75209;SDS011;63796;53.136;14.882;2023-02-28T11:32:20;3.50;;;3.10;;
75209;SDS011;63796;53.136;14.882;2023-02-28T11:35:02;5.50;;;3.20;;
75209;SDS011;63796;53.136;14.882;2023-02-28T11:37:31;4.20;;;2.90;;
75209;SDS011;63796;53.136;14.882;2023-02-28T11:39:59;4.00;;;2.60;;
75209;SDS011;63796;53.136;14.882;2023-02-28T11:42:50;4.90;;;3.10;;
75209;SDS011;63796;53.136;14.882;2023-02-28T11:48:04;11.50;;;8.40;;
75209;SDS011;63796;53.136;14.882;2023-02-28T11:50:47;16.40;;;10.30;;
75209;SDS011;63796;53.136;14.882;2023-02-28T11:55:54;4.80;;;2.90;;
75209;SDS011;63796;53.136;14.882;2023-02-28T12:01:34;8.90;;;3.40;;
75209;SDS011;63796;53.136;14.882;2023-02-28T12:06:57;9.70;;;7.20;;
75209;SDS011;63796;53.136;14.882;2023-02-28T12:12:25;7.20;;;5.10;;
75209;SDS011;63796;53.136;14.882;2023-02-28T12:29:17;5.20;;;2.90;;
75209;SDS011;63796;53.136;14.882;2023-02-28T12:31:51;6.40;;;3.20;;
75209;SDS011;63796;53.136;14.882;2023-02-28T12:34:28;5.10;;;3.10;;
75209;SDS011;63796;53.136;14.882;2023-02-28T12:37:02;5.30;;;2.90;;
75209;SDS011;63796;53.136;14.882;2023-02-28T12:39:41;4.20;;;2.80;;
75209;SDS011;63796;53.136;14.882;2023-02-28T12:42:31;5.70;;;3.70;;
75209;SDS011;63796;53.136;14.882;2023-02-28T12:45:19;7.70;;;2.80;;
75209;SDS011;63796;53.136;14.882;2023-02-28T12:47:52;6.90;;;2.60;;
75209;SDS011;63796;53.136;14.882;2023-02-28T12:50:22;16.10;;;6.10;;
75209;SDS011;63796;53.136;14.882;2023-02-28T12:53:00;12.00;;;4.80;;
75209;SDS011;63796;53.136;14.882;2023-02-28T12:55:40;17.70;;;5.70;;
75209;SDS011;63796;53.136;14.882;2023-02-28T13:11:46;14.90;;;5.50;;
75209;SDS011;63796;53.136;14.882;2023-02-28T13:16:54;19.50;;;7.60;;
75209;SDS011;63796;53.136;14.882;2023-02-28T13:19:26;12.50;;;5.50;;
75209;SDS011;63796;53.136;14.882;2023-02-28T13:21:54;8.50;;;3.00;;
75209;SDS011;63796;53.136;14.882;2023-02-28T13:29:39;5.00;;;2.50;;
75209;SDS011;63796;53.136;14.882;2023-02-28T13:39:51;9.10;;;3.10;;
75209;SDS011;63796;53.136;14.882;2023-02-28T13:50:37;7.10;;;2.90;;
75209;SDS011;63796;53.136;14.882;2023-02-28T14:01:34;6.10;;;3.30;;
75209;SDS011;63796;53.136;14.882;2023-02-28T14:07:33;5.20;;;3.50;;
75209;SDS011;63796;53.136;14.882;2023-02-28T14:10:06;4.80;;;2.90;;
75209;SDS011;63796;53.136;14.882;2023-02-28T14:18:26;6.20;;;3.30;;
75209;SDS011;63796;53.136;14.882;2023-02-28T14:21:00;10.80;;;3.30;;
75209;SDS011;63796;53.136;14.882;2023-02-28T14:29:01;6.90;;;2.90;;
75209;SDS011;63796;53.136;14.882;2023-02-28T14:32:02;5.00;;;2.80;;
75209;SDS011;63796;53.136;14.882;2023-02-28T14:34:43;9.60;;;2.90;;
75209;SDS011;63796;53.136;14.882;2023-02-28T14:37:18;6.00;;;3.00;;
75209;SDS011;63796;53.136;14.882;2023-02-28T14:39:46;11.70;;;3.30;;
75209;SDS011;63796;53.136;14.882;2023-02-28T14:44:57;7.10;;;2.60;;
75209;SDS011;63796;53.136;14.882;2023-02-28T14:47:31;5.70;;;2.90;;
75209;SDS011;63796;53.136;14.882;2023-02-28T14:50:00;4.70;;;2.70;;
75209;SDS011;63796;53.136;14.882;2023-02-28T14:52:30;7.50;;;3.50;;
75209;SDS011;63796;53.136;14.882;2023-02-28T14:55:04;12.10;;;3.10;;
75209;SDS011;63796;53.136;14.882;2023-02-28T14:57:39;4.80;;;2.40;;
75209;SDS011;63796;53.136;14.882;2023-02-28T15:00:20;5.90;;;2.30;;
75209;SDS011;63796;53.136;14.882;2023-02-28T15:02:48;6.90;;;2.90;;
75209;SDS011;63796;53.136;14.882;2023-02-28T15:07:45;9.90;;;2.90;;
75209;SDS011;63796;53.136;14.882;2023-02-28T15:10:17;15.40;;;9.30;;
75209;SDS011;63796;53.136;14.882;2023-02-28T15:12:57;7.70;;;4.40;;
75209;SDS011;63796;53.136;14.882;2023-02-28T15:18:44;5.90;;;2.80;;
75209;SDS011;63796;53.136;14.882;2023-02-28T15:21:19;8.90;;;3.00;;
75209;SDS011;63796;53.136;14.882;2023-02-28T15:23:58;9.00;;;4.30;;
75209;SDS011;63796;53.136;14.882;2023-02-28T15:26:29;11.00;;;5.80;;
75209;SDS011;63796;53.136;14.882;2023-02-28T15:29:04;7.00;;;3.60;;
75209;SDS011;63796;53.136;14.882;2023-02-28T15:31:35;8.20;;;3.40;;
75209;SDS011;63796;53.136;14.882;2023-02-28T15:34:42;10.10;;;3.80;;
75209;SDS011;63796;53.136;14.882;2023-02-28T15:40:09;8.40;;;2.60;;
75209;SDS011;63796;53.136;14.882;2023-02-28T15:42:37;6.40;;;2.20;;
75209;SDS011;63796;53.136;14.882;2023-02-28T15:45:05;5.30;;;1.90;;
75209;SDS011;63796;53.136;14.882;2023-02-28T15:47:33;5.80;;;2.00;;
75209;SDS011;63796;53.136;14.882;2023-02-28T15:50:05;6.50;;;2.10;;
75209;SDS011;63796;53.136;14.882;2023-02-28T15:55:15;4.60;;;1.50;;
75209;SDS011;63796;53.136;14.882;2023-02-28T15:57:47;4.70;;;1.70;;
75209;SDS011;63796;53.136;14.882;2023-02-28T16:00:19;4.70;;;1.70;;
75209;SDS011;63796;53.136;14.882;2023-02-28T16:02:47;4.50;;;2.00;;
75209;SDS011;63796;53.136;14.882;2023-02-28T16:05:21;7.80;;;2.80;;
75209;SDS011;63796;53.136;14.882;2023-02-28T16:07:56;9.80;;;3.50;;
75209;SDS011;63796;53.136;14.882;2023-02-28T16:10:26;10.30;;;3.00;;
75209;SDS011;63796;53.136;14.882;2023-02-28T16:12:55;13.20;;;5.00;;
75209;SDS011;63796;53.136;14.882;2023-02-28T16:15:45;13.00;;;5.90;;
75209;SDS011;63796;53.136;14.882;2023-02-28T16:18:13;8.20;;;3.20;;
75209;SDS011;63796;53.136;14.882;2023-02-28T16:20:40;13.30;;;4.20;;
75209;SDS011;63796;53.136;14.882;2023-02-28T16:23:08;29.20;;;7.80;;
75209;SDS011;63796;53.136;14.882;2023-02-28T16:25:38;19.50;;;6.20;;
75209;SDS011;63796;53.136;14.882;2023-02-28T16:28:19;15.20;;;5.60;;
75209;SDS011;63796;53.136;14.882;2023-02-28T16:30:47;10.70;;;3.30;;
75209;SDS011;63796;53.136;14.882;2023-02-28T16:33:15;8.40;;;2.70;;
75209;SDS011;63796;53.136;14.882;2023-02-28T16:35:42;5.60;;;2.20;;
75209;SDS011;63796;53.136;14.882;2023-02-28T16:38:09;6.00;;;1.60;;
75209;SDS011;63796;53.136;14.882;2023-02-28T16:40:37;7.50;;;1.70;;
75209;SDS011;63796;53.136;14.882;2023-02-28T16:43:07;6.30;;;2.10;;
75209;SDS011;63796;53.136;14.882;2023-02-28T16:45:36;6.60;;;2.10;;
75209;SDS011;63796;53.136;14.882;2023-02-28T16:48:04;9.20;;;3.00;;
75209;SDS011;63796;53.136;14.882;2023-02-28T16:50:31;13.40;;;3.80;;
75209;SDS011;63796;53.136;14.882;2023-02-28T16:52:59;8.40;;;2.90;;
75209;SDS011;63796;53.136;14.882;2023-02-28T16:55:27;6.70;;;2.60;;
75209;SDS011;63796;53.136;14.882;2023-02-28T16:57:57;9.40;;;3.40;;
75209;SDS011;63796;53.136;14.882;2023-02-28T17:00:26;19.20;;;3.60;;
75209;SDS011;63796;53.136;14.882;2023-02-28T17:02:54;18.40;;;4.20;;
75209;SDS011;63796;53.136;14.882;2023-02-28T17:05:22;14.10;;;4.50;;
75209;SDS011;63796;53.136;14.882;2023-02-28T17:07:50;18.00;;;4.10;;
75209;SDS011;63796;53.136;14.882;2023-02-28T17:10:20;14.60;;;3.70;;
75209;SDS011;63796;53.136;14.882;2023-02-28T17:12:48;17.30;;;3.10;;
75209;SDS011;63796;53.136;14.882;2023-02-28T17:15:17;11.00;;;2.70;;